createdAt,value
2022-12-12T00:02:24.088Z,84.71
2022-12-12T00:07:27.044Z,83.62
2022-12-12T00:12:31.304Z,84.27
2022-12-12T00:17:34.372Z,83.56
2022-12-12T00:22:37.343Z,84.14
2022-12-12T00:27:41.674Z,84.16
2022-12-12T00:32:44.621Z,82.98
2022-12-12T00:37:47.835Z,83.75
2022-12-12T00:42:52.114Z,84.01
2022-12-12T00:47:55.951Z,83.84
2022-12-12T00:52:59.424Z,84.42
2022-12-12T00:58:03.714Z,84.03
2022-12-12T01:03:06.695Z,84.21
2022-12-12T01:08:09.673Z,83.86
2022-12-12T01:13:13.928Z,84.05
2022-12-12T01:18:16.939Z,83.87
2022-12-12T01:23:19.893Z,84.03
2022-12-12T01:28:24.151Z,84.65
2022-12-12T01:33:27.585Z,83.69
2022-12-12T01:38:30.526Z,83.24
2022-12-12T01:43:35.235Z,83.81
2022-12-12T01:48:43.035Z,83.92
2022-12-12T01:53:47.169Z,83.17
2022-12-12T01:58:54.216Z,83.86
2022-12-12T02:03:58.236Z,84.37
2022-12-12T02:09:05.035Z,83.51
2022-12-12T02:14:09.409Z,84.73
2022-12-12T02:19:53.361Z,84.15
2022-12-12T02:25:17.345Z,84.64
2022-12-12T02:30:28.023Z,84.50
2022-12-12T02:35:42.844Z,84.55
2022-12-12T02:40:52.922Z,85.10
2022-12-12T02:45:59.989Z,84.47
2022-12-12T02:51:07.733Z,84.99
2022-12-12T02:56:50.591Z,86.15
2022-12-12T03:02:22.422Z,87.09
2022-12-12T03:07:50.078Z,86.31
2022-12-12T03:13:00.833Z,86.05
2022-12-12T03:18:17.613Z,85.49
2022-12-12T03:23:28.434Z,85.49
2022-12-12T03:28:35.923Z,85.33
2022-12-12T03:33:43.296Z,86.35
2022-12-12T03:38:57.033Z,86.82
2022-12-12T03:44:06.825Z,86.28
2022-12-12T03:49:14.185Z,86.36
2022-12-12T03:54:23.695Z,86.68
2022-12-12T03:59:34.000Z,86.15
2022-12-12T04:04:42.875Z,85.60
2022-12-12T04:10:04.710Z,85.76
2022-12-12T04:15:32.302Z,85.66
2022-12-12T04:21:01.573Z,85.82
2022-12-12T04:26:30.728Z,86.19
2022-12-12T04:31:37.718Z,86.69
2022-12-12T04:36:42.435Z,87.00
2022-12-12T04:41:49.669Z,87.59
2022-12-12T04:46:56.208Z,88.30
2022-12-12T04:52:03.662Z,88.35
2022-12-12T04:57:11.449Z,87.96
2022-12-12T05:02:25.636Z,87.81
2022-12-12T05:07:39.750Z,87.43
2022-12-12T05:12:49.269Z,87.56
2022-12-12T05:17:58.123Z,87.36
2022-12-12T05:23:01.104Z,88.21
2022-12-12T05:28:05.798Z,87.65
2022-12-12T05:33:08.747Z,89.04
2022-12-12T05:38:11.695Z,88.06
2022-12-12T05:43:16.012Z,87.46
2022-12-12T05:48:24.102Z,87.24
2022-12-12T05:53:27.567Z,87.06
2022-12-12T05:58:31.858Z,88.02
2022-12-12T06:03:35.477Z,87.75
2022-12-12T06:08:38.567Z,86.71
2022-12-12T06:13:42.891Z,88.30
2022-12-12T06:18:46.347Z,87.29
2022-12-12T06:23:49.830Z,87.17
2022-12-12T06:28:54.164Z,87.46
2022-12-12T06:33:57.113Z,86.72
2022-12-12T06:39:02.096Z,87.02
2022-12-12T06:44:07.214Z,87.15
2022-12-12T06:49:10.611Z,86.79
2022-12-12T06:54:14.335Z,85.93
2022-12-12T06:59:18.715Z,85.74
2022-12-12T07:04:21.575Z,85.40
2022-12-12T07:09:24.556Z,85.05
2022-12-12T07:14:28.810Z,85.04
2022-12-12T07:19:31.713Z,85.00
2022-12-12T07:24:34.661Z,85.70
2022-12-12T07:29:38.956Z,84.67
2022-12-12T07:34:41.880Z,84.73
2022-12-12T07:39:44.806Z,83.97
2022-12-12T07:44:49.065Z,83.72
2022-12-12T07:49:52.015Z,83.68
2022-12-12T07:54:55.034Z,83.86
2022-12-12T07:59:59.357Z,82.33
2022-12-12T08:05:02.378Z,81.95
2022-12-12T08:10:06.225Z,81.80
2022-12-12T08:15:16.256Z,81.47
2022-12-12T08:20:19.219Z,81.14
2022-12-12T08:25:22.162Z,80.46
2022-12-12T08:30:26.512Z,80.41
2022-12-12T08:35:30.607Z,79.17
2022-12-12T08:40:35.926Z,80.18
2022-12-12T08:45:40.590Z,78.92
2022-12-12T08:50:43.723Z,79.04
2022-12-12T08:55:46.849Z,78.84
2022-12-12T09:00:51.258Z,79.77
2022-12-12T09:05:54.159Z,78.93
2022-12-12T09:10:57.048Z,78.93
2022-12-12T09:16:01.427Z,78.24
2022-12-12T09:21:04.882Z,78.67
2022-12-12T09:26:09.214Z,78.64
2022-12-12T09:31:14.521Z,78.45
2022-12-12T09:36:17.870Z,77.54
2022-12-12T09:41:22.628Z,76.72
2022-12-12T09:46:34.453Z,77.59
2022-12-12T09:51:37.815Z,76.32
2022-12-12T09:56:48.841Z,75.13
2022-12-12T10:02:05.204Z,74.66
2022-12-12T10:07:17.782Z,74.32
2022-12-12T10:12:23.014Z,74.63
2022-12-12T10:17:31.454Z,74.23
2022-12-12T10:22:41.375Z,75.18
2022-12-12T10:27:44.711Z,75.76
2022-12-12T10:33:10.445Z,77.60
2022-12-12T10:38:32.522Z,77.33
2022-12-12T10:43:45.546Z,76.26
2022-12-12T10:48:50.364Z,77.29
2022-12-12T10:53:53.680Z,76.34
2022-12-12T10:58:58.628Z,76.63
2022-12-12T11:04:03.538Z,75.88
2022-12-12T11:09:10.069Z,76.10
2022-12-12T11:14:28.074Z,77.54
2022-12-12T11:19:39.963Z,77.52
2022-12-12T11:24:46.487Z,78.16
2022-12-12T11:29:52.603Z,78.75
2022-12-12T11:34:59.315Z,78.55
2022-12-12T11:40:02.526Z,79.98
2022-12-12T11:45:20.891Z,78.51
2022-12-12T11:50:27.124Z,80.18
2022-12-12T11:55:40.505Z,82.15
2022-12-12T12:00:50.709Z,81.49
2022-12-12T12:06:09.751Z,79.78
2022-12-12T12:11:22.781Z,79.76
2022-12-12T12:16:36.682Z,80.18
2022-12-12T12:21:49.107Z,81.25
2022-12-12T12:27:02.055Z,80.96
2022-12-12T12:32:13.974Z,81.42
2022-12-12T12:37:32.986Z,79.67
2022-12-12T12:42:51.671Z,79.47
2022-12-12T12:47:59.976Z,80.84
2022-12-12T12:53:08.343Z,79.84
2022-12-12T12:58:19.707Z,79.63
2022-12-12T13:03:28.566Z,81.15
2022-12-12T13:08:40.795Z,81.73
2022-12-12T13:13:48.942Z,81.93
2022-12-12T13:19:03.593Z,81.82
2022-12-12T13:24:15.119Z,82.30
2022-12-12T13:29:33.741Z,82.27
2022-12-12T13:34:42.194Z,82.57
2022-12-12T13:39:47.739Z,83.07
2022-12-12T13:44:51.054Z,83.31
2022-12-12T13:49:55.496Z,82.34
2022-12-12T13:55:22.415Z,81.64
2022-12-12T14:00:27.111Z,81.58
2022-12-12T14:05:32.628Z,80.54
2022-12-12T14:10:40.870Z,80.12
2022-12-12T14:15:45.527Z,82.00
2022-12-12T14:20:59.726Z,79.38
2022-12-12T14:26:42.405Z,80.47
2022-12-12T14:31:54.135Z,79.17
2022-12-12T14:37:29.793Z,78.53
2022-12-12T14:43:15.319Z,78.15
2022-12-12T14:48:20.212Z,78.78
2022-12-12T14:53:25.806Z,79.26
2022-12-12T14:58:32.275Z,79.16
2022-12-12T15:03:40.325Z,78.66
2022-12-12T15:08:43.714Z,78.37
2022-12-12T15:13:56.456Z,78.17
2022-12-12T15:19:01.017Z,78.58
2022-12-12T15:24:04.139Z,80.34
2022-12-12T15:29:09.619Z,80.17
2022-12-12T15:34:31.531Z,81.60
2022-12-12T15:39:34.693Z,80.42
2022-12-12T15:44:39.511Z,80.94
2022-12-12T15:49:44.839Z,80.29
2022-12-12T15:54:51.059Z,81.37
2022-12-12T15:59:58.260Z,83.24
2022-12-12T16:05:05.832Z,81.98
2022-12-12T16:10:29.918Z,83.50
2022-12-12T16:15:36.850Z,83.00
2022-12-12T16:20:46.314Z,83.25
2022-12-12T16:25:49.498Z,83.03
2022-12-12T16:30:57.232Z,82.47
2022-12-12T16:36:01.669Z,82.54
2022-12-12T16:41:10.228Z,82.79
2022-12-12T16:46:20.079Z,83.27
2022-12-12T16:51:28.935Z,82.29
2022-12-12T16:56:32.059Z,82.89
2022-12-12T17:01:38.923Z,82.42
2022-12-12T17:06:42.009Z,82.05
2022-12-12T17:11:45.622Z,82.07
2022-12-12T17:16:50.078Z,83.05
2022-12-12T17:21:53.008Z,82.94
2022-12-12T17:26:55.970Z,82.20
2022-12-12T17:32:00.292Z,82.64
2022-12-12T17:37:03.304Z,81.63
2022-12-12T17:42:06.430Z,82.40
2022-12-12T17:47:10.697Z,82.60
2022-12-12T17:52:13.822Z,81.72
2022-12-12T17:57:16.773Z,80.83
2022-12-12T18:02:21.458Z,79.58
2022-12-12T18:07:24.454Z,80.10
2022-12-12T18:12:27.418Z,79.96
2022-12-12T18:17:31.736Z,80.72
2022-12-12T18:22:36.488Z,81.58
2022-12-12T18:27:40.337Z,81.69
2022-12-12T18:32:46.271Z,81.77
2022-12-12T18:37:49.352Z,81.35
2022-12-12T18:42:52.329Z,80.38
2022-12-12T18:47:56.692Z,81.24
2022-12-12T18:52:59.634Z,81.29
2022-12-12T18:58:03.979Z,82.10
2022-12-12T19:03:08.271Z,81.96
2022-12-12T19:08:12.276Z,82.42
2022-12-12T19:13:15.191Z,82.52
2022-12-12T19:18:19.642Z,83.18
2022-12-12T19:23:22.588Z,82.07
2022-12-12T19:28:25.508Z,81.26
2022-12-12T19:33:29.882Z,81.24
2022-12-12T19:38:32.822Z,81.65
2022-12-12T19:43:36.124Z,80.96
2022-12-12T19:48:41.053Z,81.88
2022-12-12T19:53:46.144Z,85.73
2022-12-12T19:58:50.240Z,81.45
2022-12-12T20:03:56.275Z,81.01
2022-12-12T20:09:00.101Z,80.82
2022-12-12T20:14:03.328Z,80.25
2022-12-12T20:19:07.729Z,80.53
2022-12-12T20:24:10.959Z,80.56
2022-12-12T20:29:15.252Z,80.18
2022-12-12T20:34:24.885Z,80.72
2022-12-12T20:39:28.162Z,79.88
2022-12-12T20:44:31.094Z,79.88
2022-12-12T20:49:35.405Z,80.44
2022-12-12T20:54:38.343Z,79.99
2022-12-12T20:59:41.260Z,80.26
2022-12-12T21:04:45.686Z,80.35
2022-12-12T21:09:48.595Z,80.81
2022-12-12T21:14:51.495Z,80.10
2022-12-12T21:19:55.805Z,80.45
2022-12-12T21:24:58.704Z,80.69
2022-12-12T21:30:01.611Z,81.01
2022-12-12T21:35:06.634Z,80.90
2022-12-12T21:40:11.054Z,80.33
2022-12-12T21:45:16.454Z,81.64
2022-12-12T21:50:22.772Z,81.25
2022-12-12T21:55:27.683Z,80.75
2022-12-12T22:00:30.695Z,81.13
2022-12-12T22:05:34.955Z,80.90
2022-12-12T22:10:38.323Z,81.08
2022-12-12T22:15:41.274Z,81.40
2022-12-12T22:20:46.268Z,80.96
2022-12-12T22:25:49.242Z,80.37
2022-12-12T22:30:52.207Z,79.75
2022-12-12T22:35:59.526Z,80.52
2022-12-12T22:41:02.512Z,79.43
2022-12-12T22:46:07.574Z,80.11
2022-12-12T22:51:16.870Z,79.33
2022-12-12T22:56:19.930Z,80.17
2022-12-12T23:01:25.339Z,79.78
2022-12-12T23:06:31.242Z,80.30
2022-12-12T23:11:35.720Z,80.28
2022-12-12T23:16:38.727Z,79.81
2022-12-12T23:21:43.446Z,79.90
2022-12-12T23:26:47.261Z,79.69
2022-12-12T23:31:50.447Z,79.54
2022-12-12T23:36:56.715Z,79.49
2022-12-12T23:41:59.584Z,79.28
2022-12-12T23:47:03.835Z,78.86
2022-12-12T23:52:08.128Z,78.32
2022-12-12T23:57:12.156Z,78.78
